createdAt,value
2017-06-21T00:00:33.158Z,101020
2017-06-21T00:03:00.446Z,101024
2017-06-21T00:05:27.712Z,101022
2017-06-21T00:07:55.094Z,101016
2017-06-21T00:10:22.387Z,101025
2017-06-21T00:12:49.673Z,101013
2017-06-21T00:15:16.964Z,101013
2017-06-21T00:17:44.225Z,101008
2017-06-21T00:20:11.492Z,101018
2017-06-21T00:22:38.760Z,101020
2017-06-21T00:25:06.032Z,101017
2017-06-21T00:27:33.368Z,101008
2017-06-21T00:30:00.641Z,101013
2017-06-21T00:32:28.055Z,101013
2017-06-21T00:34:55.348Z,101002
2017-06-21T00:37:22.617Z,101003
2017-06-21T00:39:50.331Z,101009
2017-06-21T00:42:18.664Z,101002
2017-06-21T00:44:45.954Z,101007
2017-06-21T00:47:13.228Z,101008
2017-06-21T00:49:40.500Z,101000
2017-06-21T00:52:07.768Z,101009
2017-06-21T00:54:35.035Z,101010
2017-06-21T00:57:02.327Z,101003
2017-06-21T00:59:29.615Z,101004
2017-06-21T01:01:56.893Z,100996
2017-06-21T01:04:24.557Z,100997
2017-06-21T01:06:51.854Z,101000
2017-06-21T01:09:19.132Z,100995
2017-06-21T01:11:46.410Z,100996
2017-06-21T01:14:14.090Z,101005
2017-06-21T01:16:41.370Z,101005
2017-06-21T01:19:08.649Z,101000
2017-06-21T01:21:35.939Z,101006
2017-06-21T01:24:03.605Z,101009
2017-06-21T01:26:31.152Z,101011
2017-06-21T01:28:58.816Z,101016
2017-06-21T01:31:26.086Z,101017
2017-06-21T01:33:53.383Z,101021
2017-06-21T01:36:20.698Z,101022
2017-06-21T01:38:47.972Z,101020
2017-06-21T01:41:15.259Z,101024
2017-06-21T01:43:42.549Z,101016
2017-06-21T01:46:09.838Z,101010
2017-06-21T01:48:37.122Z,101009
2017-06-21T01:51:04.410Z,101009
2017-06-21T01:53:31.875Z,101003
2017-06-21T01:55:59.164Z,101017
2017-06-21T01:58:26.432Z,101013
2017-06-21T02:00:53.719Z,101016
2017-06-21T02:03:21.385Z,101017
2017-06-21T02:05:48.652Z,101009
2017-06-21T02:08:15.942Z,101021
2017-06-21T02:10:43.212Z,101011
2017-06-21T02:13:10.502Z,101009
2017-06-21T02:15:37.772Z,101008
2017-06-21T02:18:05.049Z,101004
2017-06-21T02:20:32.316Z,101008
2017-06-21T02:22:59.783Z,101002
2017-06-21T02:25:27.401Z,101001
2017-06-21T02:27:54.963Z,100999
2017-06-21T02:30:22.241Z,101001
2017-06-21T02:32:49.521Z,100998
2017-06-21T02:35:16.813Z,101005
2017-06-21T02:37:44.107Z,100998
2017-06-21T02:40:11.376Z,101001
2017-06-21T02:42:38.673Z,101010
2017-06-21T02:45:05.956Z,101009
2017-06-21T02:47:33.243Z,101005
2017-06-21T02:50:00.911Z,101014
2017-06-21T02:52:28.424Z,101000
2017-06-21T02:54:55.715Z,101008
2017-06-21T02:57:22.992Z,101004
2017-06-21T02:59:50.265Z,101010
2017-06-21T03:02:17.555Z,101003
2017-06-21T03:04:45.146Z,101002
2017-06-21T03:07:12.839Z,100999
2017-06-21T03:09:40.113Z,101000
2017-06-21T03:12:07.399Z,101002
2017-06-21T03:14:34.693Z,100996
2017-06-21T03:17:02.396Z,101003
2017-06-21T03:19:29.664Z,101008
2017-06-21T03:21:56.936Z,101002
2017-06-21T03:24:24.222Z,100999
2017-06-21T03:26:51.501Z,101008
2017-06-21T03:29:18.786Z,101007
2017-06-21T03:31:46.455Z,100996
2017-06-21T03:34:13.734Z,100990
2017-06-21T03:36:41.024Z,100993
2017-06-21T03:39:08.306Z,101007
2017-06-21T03:41:35.986Z,101003
2017-06-21T03:44:03.467Z,101002
2017-06-21T03:46:30.741Z,100997
2017-06-21T03:48:58.035Z,100996
2017-06-21T03:51:25.305Z,101001
2017-06-21T03:53:52.569Z,100998
2017-06-21T03:56:19.876Z,101008
2017-06-21T03:58:47.153Z,101012
2017-06-21T04:01:14.425Z,101011
2017-06-21T04:03:41.706Z,101003
2017-06-21T04:06:08.980Z,101012
2017-06-21T04:08:36.257Z,101014
2017-06-21T04:11:03.942Z,101019
2017-06-21T04:13:31.221Z,101013
2017-06-21T04:15:58.508Z,101001
2017-06-21T04:18:25.800Z,101005
2017-06-21T04:20:53.068Z,101002
2017-06-21T04:23:20.337Z,101003
2017-06-21T04:25:47.612Z,101004
2017-06-21T04:28:14.892Z,101012
2017-06-21T04:30:42.182Z,101011
2017-06-21T04:33:09.635Z,100996
2017-06-21T04:35:36.905Z,101010
2017-06-21T04:38:04.171Z,101011
2017-06-21T04:40:31.452Z,101006
2017-06-21T04:42:58.760Z,101016
2017-06-21T04:45:26.038Z,101012
2017-06-21T04:47:53.329Z,101011
2017-06-21T04:50:20.611Z,101008
2017-06-21T04:52:47.903Z,101014
2017-06-21T04:55:15.176Z,101009
2017-06-21T04:57:42.837Z,101009
2017-06-21T05:00:10.127Z,101004
2017-06-21T05:02:37.424Z,101014
2017-06-21T05:05:04.693Z,101007
2017-06-21T05:07:31.974Z,101019
2017-06-21T05:09:59.244Z,101008
2017-06-21T05:12:26.566Z,101005
2017-06-21T05:14:53.839Z,101011
2017-06-21T05:17:21.107Z,101015
2017-06-21T05:19:48.380Z,101017
2017-06-21T05:22:15.653Z,101019
2017-06-21T05:24:42.944Z,101012
2017-06-21T05:27:10.231Z,101016
2017-06-21T05:29:38.063Z,101008
2017-06-21T05:32:05.360Z,101010
2017-06-21T05:34:32.628Z,101013
2017-06-21T05:36:59.919Z,101004
2017-06-21T05:39:27.185Z,101016
2017-06-21T05:41:54.615Z,101016
2017-06-21T05:44:21.898Z,101019
2017-06-21T05:46:49.187Z,101019
2017-06-21T05:49:16.470Z,101018
2017-06-21T05:51:44.160Z,101015
2017-06-21T05:54:11.626Z,101016
2017-06-21T05:56:38.896Z,101023
2017-06-21T05:59:06.165Z,101015
2017-06-21T06:01:33.260Z,101016
2017-06-21T06:04:00.752Z,101021
2017-06-21T06:06:28.042Z,101025
2017-06-21T06:08:55.328Z,101026
2017-06-21T06:11:22.621Z,101016
2017-06-21T06:13:49.911Z,101032
2017-06-21T06:16:17.180Z,101034
2017-06-21T06:18:44.457Z,101032
2017-06-21T06:21:11.754Z,101032
2017-06-21T06:23:39.033Z,101029
2017-06-21T06:26:06.792Z,101036
2017-06-21T06:28:34.456Z,101043
2017-06-21T06:31:01.749Z,101032
2017-06-21T06:33:29.035Z,101029
2017-06-21T06:35:56.327Z,101026
2017-06-21T06:38:23.617Z,101019
2017-06-21T06:40:50.897Z,101020
2017-06-21T06:43:18.692Z,101015
2017-06-21T06:45:46.481Z,101008
2017-06-21T06:48:13.765Z,101013
2017-06-21T06:50:41.032Z,101015
2017-06-21T06:53:08.333Z,101013
2017-06-21T06:55:35.618Z,101013
2017-06-21T06:58:02.907Z,101008
2017-06-21T07:00:30.180Z,101005
2017-06-21T07:02:57.887Z,101009
2017-06-21T07:05:25.182Z,101011
2017-06-21T07:07:52.848Z,101010
2017-06-21T07:10:20.326Z,101003
2017-06-21T07:12:47.605Z,101003
2017-06-21T07:15:15.046Z,101007
2017-06-21T07:17:42.331Z,101013
2017-06-21T07:20:09.619Z,101009
2017-06-21T07:22:37.324Z,101005
2017-06-21T07:25:04.588Z,100999
2017-06-21T07:27:31.874Z,101014
2017-06-21T07:29:59.154Z,101003
2017-06-21T07:32:26.428Z,101002
2017-06-21T07:34:53.706Z,100999
2017-06-21T07:37:20.972Z,101000
2017-06-21T07:39:48.258Z,101003
2017-06-21T07:42:15.525Z,100994
2017-06-21T07:44:42.796Z,100999
2017-06-21T07:47:10.148Z,100998
2017-06-21T07:49:37.430Z,100998
2017-06-21T07:52:04.715Z,100990
2017-06-21T07:54:32.398Z,100985
2017-06-21T07:56:59.676Z,100986
2017-06-21T07:59:26.960Z,100995
2017-06-21T08:01:54.252Z,100987
2017-06-21T08:04:21.542Z,100985
2017-06-21T08:06:48.817Z,100985
2017-06-21T08:09:16.099Z,100981
2017-06-21T08:11:43.373Z,100977
2017-06-21T08:14:10.645Z,100970
2017-06-21T08:16:37.924Z,100976
2017-06-21T08:19:05.511Z,100973
2017-06-21T08:21:32.781Z,100966
2017-06-21T08:24:00.072Z,100978
2017-06-21T08:26:27.368Z,100967
2017-06-21T08:28:54.655Z,100968
2017-06-21T08:31:21.943Z,100970
2017-06-21T08:33:49.213Z,100958
2017-06-21T08:36:16.499Z,100968
2017-06-21T08:38:44.055Z,100968
2017-06-21T08:41:11.333Z,100970
2017-06-21T08:43:38.601Z,100966
2017-06-21T08:46:05.884Z,100952
2017-06-21T08:48:33.152Z,100959
2017-06-21T08:51:00.432Z,100954
2017-06-21T08:53:27.531Z,100954
2017-06-21T08:55:54.805Z,100946
2017-06-21T08:58:22.101Z,100953
2017-06-21T09:00:49.369Z,100952
2017-06-21T09:03:16.644Z,100949
2017-06-21T09:05:43.909Z,100950
2017-06-21T09:08:11.300Z,100945
2017-06-21T09:10:38.569Z,100949
2017-06-21T09:13:05.838Z,100948
2017-06-21T09:15:33.125Z,100949
2017-06-21T09:18:00.420Z,100949
2017-06-21T09:20:27.699Z,100944
2017-06-21T09:22:54.969Z,100945
2017-06-21T09:25:22.241Z,100942
2017-06-21T09:27:49.531Z,100940
2017-06-21T09:30:16.815Z,100937
2017-06-21T09:32:44.085Z,100934
2017-06-21T09:35:11.349Z,100941
2017-06-21T09:37:38.634Z,100939
2017-06-21T09:40:05.908Z,100929
2017-06-21T09:42:33.180Z,100930
2017-06-21T09:45:00.448Z,100929
2017-06-21T09:47:27.721Z,100931
2017-06-21T09:49:54.996Z,100926
2017-06-21T09:52:22.391Z,100932
2017-06-21T09:54:49.664Z,100933
2017-06-21T09:57:16.954Z,100924
2017-06-21T09:59:44.123Z,100929
2017-06-21T10:02:11.446Z,100926
2017-06-21T10:04:38.731Z,100932
2017-06-21T10:07:06.005Z,100935
2017-06-21T10:09:33.281Z,100935
2017-06-21T10:12:00.557Z,100937
2017-06-21T10:14:28.226Z,100932
2017-06-21T10:16:55.497Z,100928
2017-06-21T10:19:22.787Z,100921
2017-06-21T10:21:50.071Z,100933
2017-06-21T10:24:17.490Z,100928
2017-06-21T10:26:44.756Z,100928
2017-06-21T10:29:12.045Z,100929
2017-06-21T10:31:39.317Z,100917
2017-06-21T10:34:06.609Z,100927
2017-06-21T10:36:33.934Z,100931
2017-06-21T10:39:01.226Z,100928
2017-06-21T10:41:28.515Z,100935
2017-06-21T10:43:56.276Z,100929
2017-06-21T10:46:23.936Z,100932
2017-06-21T10:48:51.505Z,100934
2017-06-21T10:51:19.171Z,100923
2017-06-21T10:53:46.472Z,100925
2017-06-21T10:56:13.759Z,100930
2017-06-21T10:58:41.050Z,100929
2017-06-21T11:01:08.320Z,100923
2017-06-21T11:03:35.634Z,100923
2017-06-21T11:06:02.923Z,100930
2017-06-21T11:08:30.228Z,100922
2017-06-21T11:10:57.912Z,100921
2017-06-21T11:13:25.183Z,100924
2017-06-21T11:15:52.929Z,100924
2017-06-21T11:18:20.201Z,100923
2017-06-21T11:20:47.487Z,100926
2017-06-21T11:23:14.753Z,100923
2017-06-21T11:25:42.032Z,100922
2017-06-21T11:28:09.316Z,100913
2017-06-21T11:30:36.603Z,100906
2017-06-21T11:33:03.867Z,100910
2017-06-21T11:35:31.175Z,100908
2017-06-21T11:37:58.449Z,100901
2017-06-21T11:40:25.711Z,100902
2017-06-21T11:42:52.971Z,100892
2017-06-21T11:45:20.255Z,100892
2017-06-21T11:47:47.735Z,100884
2017-06-21T11:50:15.020Z,100885
2017-06-21T11:52:42.286Z,100886
2017-06-21T11:55:09.557Z,100885
2017-06-21T11:57:36.828Z,100891
2017-06-21T12:00:04.115Z,100881
2017-06-21T12:02:31.380Z,100885
2017-06-21T12:04:58.662Z,100879
2017-06-21T12:07:25.982Z,100883
2017-06-21T12:09:53.263Z,100879
2017-06-21T12:12:20.586Z,100877
2017-06-21T12:14:47.878Z,100875
2017-06-21T12:17:15.153Z,100881
2017-06-21T12:19:42.439Z,100868
2017-06-21T12:22:09.729Z,100864
2017-06-21T12:24:37.011Z,100865
2017-06-21T12:27:04.294Z,100859
2017-06-21T12:29:31.663Z,100857
2017-06-21T12:31:58.932Z,100859
2017-06-21T12:34:26.196Z,100863
2017-06-21T12:36:54.388Z,100847
2017-06-21T12:39:22.052Z,100855
2017-06-21T12:41:49.330Z,100853
2017-06-21T12:44:16.605Z,100851
2017-06-21T12:46:43.877Z,100849
2017-06-21T12:49:11.160Z,100837
2017-06-21T12:51:39.101Z,100845
2017-06-21T12:54:06.368Z,100829
2017-06-21T12:56:33.646Z,100816
2017-06-21T12:59:00.926Z,100818
2017-06-21T13:01:28.210Z,100810
2017-06-21T13:03:55.484Z,100806
2017-06-21T13:06:22.779Z,100811
2017-06-21T13:08:50.049Z,100810
2017-06-21T13:11:17.322Z,100802
2017-06-21T13:13:44.662Z,100798
2017-06-21T13:16:11.936Z,100794
2017-06-21T13:18:39.312Z,100795
2017-06-21T13:21:06.980Z,100785
2017-06-21T13:23:34.094Z,100788
2017-06-21T13:26:01.379Z,100783
2017-06-21T13:28:29.057Z,100771
2017-06-21T13:30:56.347Z,100768
2017-06-21T13:33:23.621Z,100777
2017-06-21T13:35:50.911Z,100783
2017-06-21T13:38:18.595Z,100774
2017-06-21T13:40:45.896Z,100772
2017-06-21T13:43:13.186Z,100769
2017-06-21T13:45:40.616Z,100769
2017-06-21T13:48:07.889Z,100766
2017-06-21T13:50:35.571Z,100768
2017-06-21T13:53:02.839Z,100775
2017-06-21T13:55:31.251Z,100763
2017-06-21T13:57:59.320Z,100766
2017-06-21T14:00:26.734Z,100760
2017-06-21T14:02:54.068Z,100762
2017-06-21T14:05:21.645Z,100755
2017-06-21T14:07:49.412Z,100758
2017-06-21T14:10:16.869Z,100750
2017-06-21T14:12:44.161Z,100744
2017-06-21T14:15:11.748Z,100744
2017-06-21T14:17:40.273Z,100743
2017-06-21T14:20:08.234Z,100735
2017-06-21T14:22:35.505Z,100737
2017-06-21T14:25:03.149Z,100728
2017-06-21T14:27:30.491Z,100729
2017-06-21T14:29:58.434Z,100731
2017-06-21T14:32:25.700Z,100726
2017-06-21T14:34:52.968Z,100723
2017-06-21T14:37:20.363Z,100720
2017-06-21T14:39:47.639Z,100719
2017-06-21T14:42:14.923Z,100715
2017-06-21T14:44:42.192Z,100716
2017-06-21T14:47:09.470Z,100708
2017-06-21T14:49:36.756Z,100703
2017-06-21T14:52:04.033Z,100701
2017-06-21T14:54:31.309Z,100696
2017-06-21T14:56:58.581Z,100696
2017-06-21T14:59:25.876Z,100691
2017-06-21T15:01:53.392Z,100692
2017-06-21T15:04:20.912Z,100688
2017-06-21T15:06:48.186Z,100681
2017-06-21T15:09:15.460Z,100680
2017-06-21T15:11:42.732Z,100676
2017-06-21T15:14:10.004Z,100679
2017-06-21T15:16:37.296Z,100673
2017-06-21T15:19:04.564Z,100669
2017-06-21T15:21:31.831Z,100674
2017-06-21T15:23:59.102Z,100672
2017-06-21T15:26:26.371Z,100676
2017-06-21T15:28:53.646Z,100674
2017-06-21T15:31:20.935Z,100675
2017-06-21T15:33:48.232Z,100677
2017-06-21T15:36:15.900Z,100675
2017-06-21T15:38:43.172Z,100668
2017-06-21T15:41:10.633Z,100674
2017-06-21T15:43:37.919Z,100673
2017-06-21T15:46:05.208Z,100675
2017-06-21T15:48:32.890Z,100679
2017-06-21T15:51:00.168Z,100673
2017-06-21T15:53:27.445Z,100672
2017-06-21T15:55:54.723Z,100667
2017-06-21T15:58:22.403Z,100661
2017-06-21T16:00:49.682Z,100655
2017-06-21T16:03:16.952Z,100658
2017-06-21T16:05:44.083Z,100655
2017-06-21T16:08:11.378Z,100650
2017-06-21T16:10:38.648Z,100658
2017-06-21T16:13:05.920Z,100658
2017-06-21T16:15:33.193Z,100654
2017-06-21T16:18:00.483Z,100648
2017-06-21T16:20:27.756Z,100640
2017-06-21T16:22:55.453Z,100643
2017-06-21T16:25:22.985Z,100635
2017-06-21T16:27:50.283Z,100637
2017-06-21T16:30:17.568Z,100638
2017-06-21T16:32:44.845Z,100640
2017-06-21T16:35:12.135Z,100643
2017-06-21T16:37:39.412Z,100631
2017-06-21T16:40:06.680Z,100629
2017-06-21T16:42:33.966Z,100631
2017-06-21T16:45:02.648Z,100623
2017-06-21T16:47:30.337Z,100620
2017-06-21T16:49:57.627Z,100621
2017-06-21T16:52:24.916Z,100627
2017-06-21T16:54:52.202Z,100611
2017-06-21T16:57:19.477Z,100614
2017-06-21T16:59:46.767Z,100616
2017-06-21T17:02:14.455Z,100609
2017-06-21T17:04:41.755Z,100613
2017-06-21T17:07:09.047Z,100615
2017-06-21T17:09:36.321Z,100610
2017-06-21T17:12:03.612Z,100614
2017-06-21T17:14:30.909Z,100614
2017-06-21T17:16:58.600Z,100605
2017-06-21T17:19:25.887Z,100607
2017-06-21T17:21:53.171Z,100607
2017-06-21T17:24:20.440Z,100599
2017-06-21T17:26:47.735Z,100603
2017-06-21T17:29:15.010Z,100603
2017-06-21T17:31:42.291Z,100610
2017-06-21T17:34:09.585Z,100607
2017-06-21T17:36:36.874Z,100600
2017-06-21T17:39:04.152Z,100607
2017-06-21T17:41:31.433Z,100606
2017-06-21T17:43:58.709Z,100609
2017-06-21T17:46:25.986Z,100613
2017-06-21T17:48:53.270Z,100620
2017-06-21T17:51:20.638Z,100615
2017-06-21T17:53:47.931Z,100618
2017-06-21T17:56:15.241Z,100618
2017-06-21T17:58:42.527Z,100620
2017-06-21T18:01:09.659Z,100617
2017-06-21T18:03:36.951Z,100634
2017-06-21T18:06:04.249Z,100631
2017-06-21T18:08:31.535Z,100626
2017-06-21T18:10:58.829Z,100634
2017-06-21T18:13:26.102Z,100634
2017-06-21T18:15:53.391Z,100624
2017-06-21T18:18:20.667Z,100631
2017-06-21T18:20:47.941Z,100639
2017-06-21T18:23:15.623Z,100642
2017-06-21T18:25:42.907Z,100644
2017-06-21T18:28:10.175Z,100638
2017-06-21T18:30:37.455Z,100637
2017-06-21T18:33:05.125Z,100639
2017-06-21T18:35:32.598Z,100636
2017-06-21T18:37:59.878Z,100636
2017-06-21T18:40:27.170Z,100627
2017-06-21T18:42:54.436Z,100625
2017-06-21T18:45:22.104Z,100631
2017-06-21T18:47:49.381Z,100633
2017-06-21T18:50:16.668Z,100640
2017-06-21T18:52:43.945Z,100626
2017-06-21T18:55:11.221Z,100637
2017-06-21T18:57:38.492Z,100627
2017-06-21T19:00:05.760Z,100624
2017-06-21T19:02:33.046Z,100614
2017-06-21T19:05:01.274Z,100619
2017-06-21T19:07:28.545Z,100623
2017-06-21T19:09:55.840Z,100620
2017-06-21T19:12:23.117Z,100631
2017-06-21T19:14:50.408Z,100625
2017-06-21T19:17:17.694Z,100631
2017-06-21T19:19:44.983Z,100634
2017-06-21T19:22:12.257Z,100634
2017-06-21T19:24:39.546Z,100626
2017-06-21T19:27:06.848Z,100620
2017-06-21T19:29:34.141Z,100621
2017-06-21T19:32:01.771Z,100627
2017-06-21T19:34:29.230Z,100620
2017-06-21T19:36:57.487Z,100626
2017-06-21T19:39:25.986Z,100631
2017-06-21T19:41:53.722Z,100631
2017-06-21T19:44:21.825Z,100634
2017-06-21T19:46:49.138Z,100634
2017-06-21T19:49:16.737Z,100640
2017-06-21T19:51:44.195Z,100647
2017-06-21T19:54:12.227Z,100655
2017-06-21T19:56:39.723Z,100649
2017-06-21T19:59:07.029Z,100646
2017-06-21T20:01:34.945Z,100644
2017-06-21T20:04:02.258Z,100645
2017-06-21T20:06:29.529Z,100645
2017-06-21T20:08:57.314Z,100651
2017-06-21T20:11:24.596Z,100645
2017-06-21T20:13:52.201Z,100649
2017-06-21T20:16:19.891Z,100652
2017-06-21T20:18:47.161Z,100646
2017-06-21T20:21:14.454Z,100650
2017-06-21T20:23:41.734Z,100653
2017-06-21T20:26:09.165Z,100655
2017-06-21T20:28:36.960Z,100650
2017-06-21T20:31:04.518Z,100651
2017-06-21T20:33:31.788Z,100654
2017-06-21T20:35:59.068Z,100642
2017-06-21T20:38:26.344Z,100638
2017-06-21T20:40:53.934Z,100652
2017-06-21T20:43:21.331Z,100654
2017-06-21T20:45:48.620Z,100659
2017-06-21T20:48:15.913Z,100661
2017-06-21T20:50:43.198Z,100661
2017-06-21T20:53:10.475Z,100655
2017-06-21T20:55:37.763Z,100661
2017-06-21T20:58:05.033Z,100661
2017-06-21T21:00:32.301Z,100658
2017-06-21T21:02:59.587Z,100666
2017-06-21T21:05:26.876Z,100651
2017-06-21T21:07:54.167Z,100653
2017-06-21T21:10:21.451Z,100650
2017-06-21T21:12:48.743Z,100650
2017-06-21T21:15:16.187Z,100649
2017-06-21T21:17:43.474Z,100650
2017-06-21T21:20:10.748Z,100659
2017-06-21T21:22:38.572Z,100654
2017-06-21T21:25:06.399Z,100659
2017-06-21T21:27:34.102Z,100657
2017-06-21T21:30:01.394Z,100657
2017-06-21T21:32:28.683Z,100657
2017-06-21T21:34:56.764Z,100650
2017-06-21T21:37:24.054Z,100658
2017-06-21T21:39:51.341Z,100658
2017-06-21T21:42:19.556Z,100647
2017-06-21T21:44:46.864Z,100652
2017-06-21T21:47:14.131Z,100652
2017-06-21T21:49:41.408Z,100647
2017-06-21T21:52:08.699Z,100651
2017-06-21T21:54:35.968Z,100646
2017-06-21T21:57:03.254Z,100644
2017-06-21T21:59:30.947Z,100641
2017-06-21T22:01:58.244Z,100647
2017-06-21T22:04:25.534Z,100634
2017-06-21T22:06:52.826Z,100633
2017-06-21T22:09:20.097Z,100637
2017-06-21T22:11:47.387Z,100631
2017-06-21T22:14:14.932Z,100637
2017-06-21T22:16:42.222Z,100639
2017-06-21T22:19:09.627Z,100646
2017-06-21T22:21:36.907Z,100636
2017-06-21T22:24:04.917Z,100641
2017-06-21T22:26:32.185Z,100642
2017-06-21T22:28:59.466Z,100645
2017-06-21T22:31:27.051Z,100638
2017-06-21T22:33:54.339Z,100639
2017-06-21T22:36:22.572Z,100642
2017-06-21T22:38:49.855Z,100642
2017-06-21T22:41:17.125Z,100647
2017-06-21T22:43:44.659Z,100642
2017-06-21T22:46:12.186Z,100638
2017-06-21T22:48:39.472Z,100639
2017-06-21T22:51:06.758Z,100642
2017-06-21T22:53:34.028Z,100641
2017-06-21T22:56:01.315Z,100645
2017-06-21T22:58:29.682Z,100636
2017-06-21T23:00:58.840Z,100640
2017-06-21T23:03:26.774Z,100635
2017-06-21T23:05:54.053Z,100634
2017-06-21T23:08:21.719Z,100639
2017-06-21T23:10:49.011Z,100638
2017-06-21T23:13:16.277Z,100638
2017-06-21T23:15:44.284Z,100632
2017-06-21T23:18:12.745Z,100627
2017-06-21T23:20:40.202Z,100625
2017-06-21T23:23:07.513Z,100624
2017-06-21T23:25:34.908Z,100619
2017-06-21T23:28:02.205Z,100619
2017-06-21T23:30:29.495Z,100612
2017-06-21T23:32:57.179Z,100611
2017-06-21T23:35:24.622Z,100604
2017-06-21T23:37:51.892Z,100601
2017-06-21T23:40:19.155Z,100605
2017-06-21T23:42:46.446Z,100604
2017-06-21T23:45:15.195Z,100595
2017-06-21T23:47:42.571Z,100596
2017-06-21T23:50:09.840Z,100578
2017-06-21T23:52:37.108Z,100574
2017-06-21T23:55:05.144Z,100571
2017-06-21T23:57:32.920Z,100565
